Archival Weather

Bridgeport/Sikorsky

Bridgeport, Connecticut (KBDR)

Report from: Friday, February 23, 2024 8:52 AM EST
Current time: Wednesday, May 29, 2024 9:20 PM EDT

Current weather – Weather history – Daily summaries
Weather forecast

Present weatherMist
Temperature5.6°C (42.1°F)
Wind chill3.6°C (38.4°F)
Dew point4.4°C (39.9°F)
Winds 5 kts (2.6 m/s, 5.8 mph) North-Northeast (20°)
Visibility5 mi. (8 km)
Clouds Ceiling: Overcast 6,500 ft. (1,981 m)
Altimeter29.52 in.Hg (1000 mB)
Relative humidity92 %
Density altitude-545 ft. (-166 m)
Sea-level pressure100.0 kPa (1000 mB, 29.52 in.Hg)
Remarks Automated weather observing station with precipitation discriminator
Flight conditions Visual Meteorological Conditions
Raw dataKBDR 231352Z 02005KT 5SM BR OVC065 06/04 A2952 RMK AO2 SLP996 T00560044
An error has occurred. This application may no longer respond until reloaded. Reload 🗙